createdAt,value
2022-10-19T00:02:12.498Z,1.10
2022-10-19T00:05:02.477Z,1.10
2022-10-19T00:07:50.634Z,1.20
2022-10-19T00:10:42.270Z,1.00
2022-10-19T00:13:30.530Z,1.00
2022-10-19T00:16:19.910Z,1.00
2022-10-19T00:19:10.171Z,1.20
2022-10-19T00:21:59.994Z,1.10
2022-10-19T00:24:47.952Z,1.10
2022-10-19T00:27:37.987Z,1.00
2022-10-19T00:30:26.426Z,1.20
2022-10-19T00:33:21.087Z,1.13
2022-10-19T00:36:16.934Z,1.05
2022-10-19T00:39:09.322Z,1.00
2022-10-19T00:41:57.805Z,1.10
2022-10-19T00:45:07.522Z,1.15
2022-10-19T00:47:56.440Z,1.10
2022-10-19T00:50:46.521Z,1.30
2022-10-19T00:53:34.932Z,1.20
2022-10-19T00:56:25.495Z,1.10
2022-10-19T00:59:16.162Z,1.00
2022-10-19T01:02:06.726Z,1.25
2022-10-19T01:04:55.582Z,1.05
2022-10-19T01:07:44.285Z,1.10
2022-10-19T01:10:44.114Z,1.20
2022-10-19T01:13:44.792Z,0.90
2022-10-19T01:16:43.884Z,0.83
2022-10-19T01:20:20.808Z,1.00
2022-10-19T01:23:30.095Z,0.93
2022-10-19T01:26:35.166Z,1.00
2022-10-19T01:29:42.031Z,1.00
2022-10-19T01:32:39.920Z,1.17
2022-10-19T01:35:35.471Z,1.10
2022-10-19T01:38:34.698Z,1.10
2022-10-19T01:41:33.067Z,1.10
2022-10-19T01:44:29.351Z,1.00
2022-10-19T01:47:22.146Z,1.08
2022-10-19T01:50:17.329Z,1.00
2022-10-19T01:53:08.232Z,1.00
2022-10-19T01:55:58.229Z,1.08
2022-10-19T01:58:47.771Z,1.05
2022-10-19T02:01:41.120Z,1.10
2022-10-19T02:04:29.643Z,1.10
2022-10-19T02:07:23.833Z,1.10
2022-10-19T02:10:11.881Z,1.00
2022-10-19T02:13:01.637Z,1.10
2022-10-19T02:15:53.001Z,1.10
2022-10-19T02:18:46.164Z,1.30
2022-10-19T02:21:34.323Z,1.10
2022-10-19T02:24:23.888Z,1.20
2022-10-19T02:27:12.231Z,1.10
2022-10-19T02:30:01.175Z,1.15
2022-10-19T02:32:51.008Z,1.10
2022-10-19T02:35:39.921Z,1.15
2022-10-19T02:38:28.643Z,0.90
2022-10-19T02:41:22.054Z,1.00
2022-10-19T02:44:18.915Z,1.10
2022-10-19T02:47:12.108Z,0.95
2022-10-19T02:50:00.472Z,1.10
2022-10-19T02:52:49.223Z,1.10
2022-10-19T02:55:37.318Z,0.90
2022-10-19T02:58:27.206Z,1.20
2022-10-19T03:01:15.468Z,1.10
2022-10-19T03:04:03.960Z,1.00
2022-10-19T03:06:51.886Z,0.90
2022-10-19T03:09:41.154Z,0.90
2022-10-19T03:12:29.002Z,1.08
2022-10-19T03:15:19.846Z,1.02
2022-10-19T03:18:07.910Z,1.10
2022-10-19T03:21:04.086Z,1.00
2022-10-19T03:23:52.686Z,1.00
2022-10-19T03:26:41.135Z,1.00
2022-10-19T03:29:29.683Z,1.20
2022-10-19T03:32:19.810Z,0.90
2022-10-19T03:35:09.217Z,0.90
2022-10-19T03:37:57.843Z,1.10
2022-10-19T03:40:45.847Z,1.10
2022-10-19T03:43:34.361Z,1.00
2022-10-19T03:46:23.113Z,1.10
2022-10-19T03:49:13.502Z,1.10
2022-10-19T03:52:01.808Z,1.00
2022-10-19T03:54:51.956Z,1.00
2022-10-19T03:57:40.139Z,1.05
2022-10-19T04:00:28.377Z,1.10
2022-10-19T04:03:16.822Z,1.10
2022-10-19T04:06:08.270Z,0.95
2022-10-19T04:08:57.294Z,1.10
2022-10-19T04:11:46.294Z,1.13
2022-10-19T04:14:52.371Z,1.00
2022-10-19T04:17:45.700Z,1.00
2022-10-19T04:20:36.486Z,0.85
2022-10-19T04:23:28.049Z,1.00
2022-10-19T04:26:17.006Z,1.10
2022-10-19T04:29:06.180Z,1.10
2022-10-19T04:31:55.054Z,1.08
2022-10-19T04:34:44.121Z,1.10
2022-10-19T04:37:32.387Z,1.00
2022-10-19T04:40:22.617Z,1.17
2022-10-19T04:43:10.730Z,1.10
2022-10-19T04:46:03.226Z,0.90
2022-10-19T04:48:51.630Z,0.90
2022-10-19T04:51:40.011Z,0.90
2022-10-19T04:54:28.140Z,1.20
2022-10-19T04:57:18.547Z,1.00
2022-10-19T05:00:08.046Z,1.10
2022-10-19T05:02:56.683Z,0.93
2022-10-19T05:05:44.819Z,1.10
2022-10-19T05:08:33.996Z,1.10
2022-10-19T05:11:22.330Z,1.00
2022-10-19T05:14:12.857Z,1.15
2022-10-19T05:17:00.787Z,1.00
2022-10-19T05:19:49.591Z,1.05
2022-10-19T05:22:37.375Z,1.10
2022-10-19T05:25:26.267Z,1.00
2022-10-19T05:28:14.074Z,1.00
2022-10-19T05:31:12.391Z,1.00
2022-10-19T05:34:01.394Z,1.00
2022-10-19T05:36:49.916Z,0.98
2022-10-19T05:39:37.686Z,0.85
2022-10-19T05:42:26.646Z,1.10
2022-10-19T05:45:14.620Z,0.98
2022-10-19T05:48:05.388Z,2.30
2022-10-19T05:50:57.163Z,3.95
2022-10-19T05:53:46.540Z,4.90
2022-10-19T05:56:34.862Z,4.70
2022-10-19T05:59:24.671Z,4.97
2022-10-19T06:02:15.175Z,4.85
2022-10-19T06:05:05.492Z,5.60
2022-10-19T06:07:53.596Z,5.13
2022-10-19T06:10:41.971Z,5.00
2022-10-19T06:13:30.337Z,5.40
2022-10-19T06:16:21.245Z,5.50
2022-10-19T06:19:09.763Z,4.83
2022-10-19T06:22:00.002Z,4.53
2022-10-19T06:24:48.158Z,5.22
2022-10-19T06:27:37.420Z,5.90
2022-10-19T06:30:26.325Z,4.53
2022-10-19T06:33:14.779Z,4.80
2022-10-19T06:36:07.591Z,4.72
2022-10-19T06:38:59.877Z,4.63
2022-10-19T06:41:47.955Z,4.97
2022-10-19T06:44:42.498Z,5.20
2022-10-19T06:47:33.427Z,4.90
2022-10-19T06:53:10.231Z,5.05
2022-10-19T06:56:01.258Z,5.15
2022-10-19T06:58:50.021Z,5.53
2022-10-19T07:01:39.068Z,5.88
2022-10-19T07:04:26.894Z,5.40
2022-10-19T07:07:15.605Z,4.93
2022-10-19T07:10:04.635Z,5.80
2022-10-19T07:12:54.961Z,5.43
2022-10-19T07:15:43.065Z,6.35
2022-10-19T07:18:32.011Z,6.20
2022-10-19T07:21:22.310Z,6.13
2022-10-19T07:24:11.281Z,6.13
2022-10-19T07:26:59.261Z,5.93
2022-10-19T07:29:49.276Z,5.97
2022-10-19T07:32:37.274Z,6.13
2022-10-19T07:35:25.867Z,6.10
2022-10-19T07:38:13.974Z,6.22
2022-10-19T07:41:05.180Z,6.25
2022-10-19T07:43:53.927Z,6.80
2022-10-19T07:46:44.416Z,6.20
2022-10-19T07:49:32.240Z,6.10
2022-10-19T07:52:21.835Z,5.68
2022-10-19T07:55:09.954Z,6.38
2022-10-19T07:58:01.704Z,6.50
2022-10-19T08:00:49.858Z,6.53
2022-10-19T08:06:49.588Z,6.07
2022-10-19T08:09:52.759Z,7.30
2022-10-19T08:12:41.958Z,6.70
2022-10-19T08:15:31.588Z,7.55
2022-10-19T08:18:21.389Z,8.00
2022-10-19T08:21:11.301Z,8.18
2022-10-19T08:23:59.502Z,8.32
2022-10-19T08:26:51.125Z,7.80
2022-10-19T08:29:38.986Z,6.50
2022-10-19T08:32:27.870Z,7.20
2022-10-19T08:35:16.091Z,7.45
2022-10-19T08:38:06.179Z,5.78
2022-10-19T08:40:55.776Z,5.90
2022-10-19T08:43:55.770Z,5.55
2022-10-19T08:46:53.963Z,5.72
2022-10-19T08:49:43.280Z,5.50
2022-10-19T08:52:34.750Z,5.53
2022-10-19T08:55:33.927Z,5.95
2022-10-19T08:58:36.679Z,5.65
2022-10-19T09:01:40.104Z,6.32
2022-10-19T09:04:33.454Z,5.97
2022-10-19T09:07:28.656Z,5.75
2022-10-19T09:10:24.428Z,5.57
2022-10-19T09:13:21.662Z,6.25
2022-10-19T09:16:14.459Z,5.70
2022-10-19T09:19:03.614Z,6.05
2022-10-19T09:21:56.699Z,5.65
2022-10-19T09:24:50.992Z,6.38
2022-10-19T09:27:41.399Z,5.88
2022-10-19T09:30:32.862Z,5.83
2022-10-19T09:33:28.205Z,5.60
2022-10-19T09:36:22.553Z,5.63
2022-10-19T09:39:13.659Z,6.10
2022-10-19T09:42:08.970Z,6.28
2022-10-19T09:44:58.228Z,5.65
2022-10-19T09:47:49.991Z,6.22
2022-10-19T09:50:43.546Z,6.20
2022-10-19T09:53:32.229Z,6.15
2022-10-19T09:56:22.085Z,6.72
2022-10-19T09:59:23.284Z,6.70
2022-10-19T10:02:17.991Z,6.53
2022-10-19T10:05:12.074Z,7.05
2022-10-19T10:08:00.400Z,6.38
2022-10-19T10:10:54.511Z,7.68
2022-10-19T10:13:44.746Z,6.90
2022-10-19T10:16:36.739Z,7.47
2022-10-19T10:19:29.587Z,6.90
2022-10-19T10:22:28.125Z,7.03
2022-10-19T10:25:19.680Z,8.10
2022-10-19T10:28:20.544Z,7.88
2022-10-19T10:31:10.277Z,8.18
2022-10-19T10:34:10.845Z,9.48
2022-10-19T10:37:21.176Z,9.27
2022-10-19T10:40:23.631Z,8.85
2022-10-19T10:43:18.900Z,9.50
2022-10-19T10:46:15.872Z,8.50
2022-10-19T10:49:06.739Z,8.35
2022-10-19T10:51:58.051Z,8.25
2022-10-19T10:55:00.152Z,9.35
2022-10-19T10:57:55.062Z,7.75
2022-10-19T11:00:44.226Z,7.00
2022-10-19T11:03:33.904Z,7.72
2022-10-19T11:06:25.499Z,7.20
2022-10-19T11:09:23.331Z,7.03
2022-10-19T11:12:15.074Z,7.38
2022-10-19T11:15:14.524Z,7.13
2022-10-19T11:18:12.853Z,6.60
2022-10-19T11:21:08.333Z,7.15
2022-10-19T11:24:07.045Z,7.15
2022-10-19T11:27:09.205Z,6.18
2022-10-19T11:30:19.811Z,6.43
2022-10-19T11:33:19.063Z,6.40
2022-10-19T11:36:15.290Z,6.30
2022-10-19T11:39:22.523Z,6.63
2022-10-19T11:42:24.871Z,6.95
2022-10-19T11:45:22.517Z,6.88
2022-10-19T11:48:33.389Z,6.57
2022-10-19T11:51:29.247Z,6.72
2022-10-19T11:54:33.158Z,7.35
2022-10-19T11:57:25.166Z,6.97
2022-10-19T12:00:37.703Z,6.70
2022-10-19T12:03:48.521Z,6.45
2022-10-19T12:06:46.839Z,7.05
2022-10-19T12:09:45.681Z,7.85
2022-10-19T12:12:37.495Z,7.03
2022-10-19T12:15:31.023Z,7.30
2022-10-19T12:18:30.885Z,6.80
2022-10-19T12:21:26.632Z,7.43
2022-10-19T12:24:18.788Z,7.57
2022-10-19T12:27:08.279Z,6.97
2022-10-19T12:29:59.589Z,7.15
2022-10-19T12:33:02.174Z,8.00
2022-10-19T12:36:14.281Z,7.53
2022-10-19T12:39:13.946Z,8.40
2022-10-19T12:42:10.750Z,8.02
2022-10-19T12:45:19.971Z,7.72
2022-10-19T12:48:24.777Z,7.72
2022-10-19T12:51:16.225Z,6.63
2022-10-19T12:54:11.339Z,7.80
2022-10-19T12:57:02.630Z,6.90
2022-10-19T13:00:01.286Z,7.60
2022-10-19T13:02:58.001Z,7.30
2022-10-19T13:05:58.224Z,7.38
2022-10-19T13:08:56.181Z,7.57
2022-10-19T13:12:33.316Z,7.75
2022-10-19T13:15:58.341Z,7.68
2022-10-19T13:19:19.481Z,8.48
2022-10-19T13:22:27.131Z,7.25
2022-10-19T13:25:28.134Z,7.63
2022-10-19T13:31:30.992Z,8.10
2022-10-19T13:34:19.791Z,9.07
2022-10-19T13:37:14.448Z,9.43
2022-10-19T13:40:15.805Z,8.70
2022-10-19T13:43:05.019Z,9.20
2022-10-19T13:45:56.139Z,8.35
2022-10-19T13:49:27.816Z,8.40
2022-10-19T13:52:53.454Z,8.98
2022-10-19T13:56:05.562Z,8.30
2022-10-19T13:59:31.455Z,8.43
2022-10-19T14:02:48.741Z,8.10
2022-10-19T14:06:02.769Z,8.50
2022-10-19T14:09:33.438Z,8.68
2022-10-19T14:12:26.278Z,8.45
2022-10-19T14:15:23.344Z,8.25
2022-10-19T14:18:24.818Z,8.15
2022-10-19T14:21:13.086Z,8.52
2022-10-19T14:24:02.356Z,7.90
2022-10-19T14:26:51.905Z,8.63
2022-10-19T14:29:46.602Z,7.60
2022-10-19T14:32:36.230Z,8.77
2022-10-19T14:35:29.088Z,8.32
2022-10-19T14:38:21.544Z,8.40
2022-10-19T14:41:22.183Z,8.55
2022-10-19T14:44:40.242Z,7.78
2022-10-19T14:47:30.680Z,7.65
2022-10-19T14:50:19.960Z,7.95
2022-10-19T14:53:28.385Z,8.45
2022-10-19T14:56:20.810Z,8.48
2022-10-19T14:59:20.541Z,7.78
2022-10-19T15:02:19.456Z,8.13
2022-10-19T15:05:20.662Z,7.65
2022-10-19T15:08:11.419Z,7.90
2022-10-19T15:11:00.183Z,8.18
2022-10-19T15:13:51.873Z,8.30
2022-10-19T15:16:46.110Z,7.57
2022-10-19T15:19:42.411Z,8.20
2022-10-19T15:22:41.522Z,7.68
2022-10-19T15:25:36.931Z,8.35
2022-10-19T15:28:37.575Z,7.55
2022-10-19T15:31:30.274Z,8.10
2022-10-19T15:34:25.726Z,7.63
2022-10-19T15:37:21.056Z,7.22
2022-10-19T15:40:14.710Z,8.07
2022-10-19T15:43:23.185Z,7.68
2022-10-19T15:46:26.782Z,7.90
2022-10-19T15:49:44.447Z,7.50
2022-10-19T15:52:35.280Z,7.88
2022-10-19T15:55:23.547Z,7.22
2022-10-19T15:58:13.714Z,7.50
2022-10-19T16:01:02.022Z,7.68
2022-10-19T16:03:51.562Z,7.60
2022-10-19T16:06:41.771Z,7.50
2022-10-19T16:09:31.739Z,8.15
2022-10-19T16:12:22.583Z,7.43
2022-10-19T16:15:13.670Z,7.22
2022-10-19T16:18:02.415Z,7.32
2022-10-19T16:20:50.763Z,7.47
2022-10-19T16:23:41.880Z,7.30
2022-10-19T16:26:33.159Z,7.07
2022-10-19T16:29:23.391Z,7.38
2022-10-19T16:32:15.475Z,7.43
2022-10-19T16:35:03.674Z,7.68
2022-10-19T16:37:52.156Z,7.30
2022-10-19T16:40:40.159Z,7.10
2022-10-19T16:43:30.653Z,7.65
2022-10-19T16:46:22.618Z,7.78
2022-10-19T16:49:11.034Z,7.75
2022-10-19T16:52:00.751Z,7.65
2022-10-19T16:54:49.096Z,7.10
2022-10-19T16:57:37.214Z,7.30
2022-10-19T17:00:27.099Z,7.22
2022-10-19T17:03:15.851Z,7.43
2022-10-19T17:06:04.613Z,6.53
2022-10-19T17:12:02.639Z,7.00
2022-10-19T17:14:51.368Z,7.22
2022-10-19T17:17:41.138Z,7.32
2022-10-19T17:20:29.331Z,7.78
2022-10-19T17:23:17.955Z,7.00
2022-10-19T17:26:07.365Z,7.13
2022-10-19T17:28:56.369Z,7.05
2022-10-19T17:31:45.068Z,6.75
2022-10-19T17:34:34.851Z,7.05
2022-10-19T17:37:23.395Z,7.13
2022-10-19T17:40:12.457Z,7.15
2022-10-19T17:43:00.755Z,7.03
2022-10-19T17:45:49.566Z,6.90
2022-10-19T17:48:39.782Z,7.03
2022-10-19T17:51:31.782Z,6.50
2022-10-19T17:54:19.970Z,6.95
2022-10-19T17:57:08.280Z,6.55
2022-10-19T17:59:56.578Z,6.82
2022-10-19T18:02:46.278Z,7.43
2022-10-19T18:05:34.559Z,6.72
2022-10-19T18:08:25.087Z,7.03
2022-10-19T18:11:15.074Z,6.70
2022-10-19T18:14:03.952Z,6.43
2022-10-19T18:16:52.212Z,7.82
2022-10-19T18:19:41.227Z,6.60
2022-10-19T18:22:29.630Z,6.65
2022-10-19T18:25:25.840Z,6.28
2022-10-19T18:28:24.280Z,6.55
2022-10-19T18:31:14.800Z,6.82
2022-10-19T18:34:04.840Z,6.70
2022-10-19T18:36:54.499Z,6.90
2022-10-19T18:39:42.530Z,6.25
2022-10-19T18:42:33.464Z,6.80
2022-10-19T18:45:22.090Z,7.00
2022-10-19T18:48:11.930Z,6.70
2022-10-19T18:51:04.771Z,6.50
2022-10-19T18:53:54.004Z,6.97
2022-10-19T18:56:42.331Z,7.05
2022-10-19T18:59:32.628Z,6.55
2022-10-19T19:02:22.305Z,6.63
2022-10-19T19:05:12.223Z,6.65
2022-10-19T19:08:00.301Z,6.18
2022-10-19T19:10:48.867Z,7.28
2022-10-19T19:13:37.331Z,6.38
2022-10-19T19:16:28.716Z,6.38
2022-10-19T19:22:08.580Z,6.30
2022-10-19T19:27:45.464Z,6.57
2022-10-19T19:30:33.740Z,6.07
2022-10-19T19:33:23.645Z,6.45
2022-10-19T19:36:13.732Z,6.85
2022-10-19T19:39:03.199Z,6.78
2022-10-19T19:41:52.127Z,6.00
2022-10-19T19:44:40.441Z,6.18
2022-10-19T19:47:28.720Z,7.07
2022-10-19T19:50:18.891Z,6.43
2022-10-19T19:53:07.388Z,6.30
2022-10-19T19:55:56.162Z,6.70
2022-10-19T19:58:45.400Z,6.55
2022-10-19T20:01:34.232Z,6.28
2022-10-19T20:04:22.518Z,6.40
2022-10-19T20:07:13.132Z,6.13
2022-10-19T20:10:01.773Z,5.90
2022-10-19T20:12:50.832Z,5.80
2022-10-19T20:15:39.987Z,5.65
2022-10-19T20:18:28.247Z,6.35
2022-10-19T20:21:17.856Z,6.85
2022-10-19T20:24:08.658Z,6.63
2022-10-19T20:26:57.194Z,6.22
2022-10-19T20:29:45.778Z,6.07
2022-10-19T20:32:34.118Z,6.35
2022-10-19T20:35:22.623Z,6.30
2022-10-19T20:38:10.653Z,5.63
2022-10-19T20:41:02.978Z,5.90
2022-10-19T20:43:53.791Z,6.05
2022-10-19T20:46:42.513Z,6.10
2022-10-19T20:49:30.961Z,6.07
2022-10-19T20:52:19.453Z,5.75
2022-10-19T20:55:08.265Z,6.43
2022-10-19T20:57:58.243Z,5.72
2022-10-19T21:00:46.343Z,5.45
2022-10-19T21:03:35.355Z,5.93
2022-10-19T21:06:25.386Z,5.75
2022-10-19T21:09:15.012Z,6.17
2022-10-19T21:12:03.655Z,6.00
2022-10-19T21:14:53.657Z,6.00
2022-10-19T21:17:41.977Z,6.10
2022-10-19T21:20:30.814Z,5.90
2022-10-19T21:23:19.131Z,5.60
2022-10-19T21:26:08.286Z,6.13
2022-10-19T21:28:57.013Z,6.15
2022-10-19T21:31:49.648Z,6.20
2022-10-19T21:34:37.686Z,6.18
2022-10-19T21:37:26.487Z,5.72
2022-10-19T21:40:14.491Z,5.65
2022-10-19T21:43:03.571Z,5.60
2022-10-19T21:45:51.477Z,5.57
2022-10-19T21:48:41.447Z,6.05
2022-10-19T21:51:36.012Z,5.93
2022-10-19T21:54:26.425Z,6.10
2022-10-19T21:57:15.015Z,6.07
2022-10-19T22:00:03.308Z,5.70
2022-10-19T22:03:00.754Z,5.75
2022-10-19T22:05:53.605Z,5.50
2022-10-19T22:08:45.346Z,5.45
2022-10-19T22:11:34.620Z,5.65
2022-10-19T22:14:22.362Z,5.50
2022-10-19T22:17:10.953Z,5.95
2022-10-19T22:19:58.924Z,5.45
2022-10-19T22:22:51.451Z,6.15
2022-10-19T22:25:42.067Z,5.72
2022-10-19T22:28:30.361Z,5.90
2022-10-19T22:31:18.553Z,5.60
2022-10-19T22:34:09.422Z,5.43
2022-10-19T22:36:57.401Z,5.53
2022-10-19T22:39:47.194Z,5.38
2022-10-19T22:42:35.255Z,4.80
2022-10-19T22:45:23.987Z,5.80
2022-10-19T22:48:12.187Z,5.32
2022-10-19T22:51:00.487Z,6.05
2022-10-19T22:53:48.569Z,5.47
2022-10-19T22:56:38.783Z,5.43
2022-10-19T22:59:26.744Z,5.28
2022-10-19T23:02:15.079Z,5.20
2022-10-19T23:05:03.345Z,5.68
2022-10-19T23:07:51.695Z,4.97
2022-10-19T23:10:40.132Z,5.80
2022-10-19T23:13:29.663Z,5.15
2022-10-19T23:16:17.760Z,5.18
2022-10-19T23:19:06.438Z,5.40
2022-10-19T23:21:54.700Z,5.45
2022-10-19T23:24:43.136Z,4.85
2022-10-19T23:27:30.971Z,5.40
2022-10-19T23:30:20.742Z,5.32
2022-10-19T23:33:09.066Z,5.70
2022-10-19T23:36:03.675Z,5.35
2022-10-19T23:38:53.042Z,5.13
2022-10-19T23:41:41.495Z,5.30
2022-10-19T23:44:30.002Z,5.05
2022-10-19T23:47:20.048Z,5.40
2022-10-19T23:50:08.591Z,5.70
2022-10-19T23:52:57.201Z,4.82
2022-10-19T23:55:45.728Z,5.25
2022-10-19T23:58:35.279Z,5.47
